sensor_id;sensor_type;location;lat;lon;timestamp;temperature;humidity
65598;SHT31;52267;51.984;20.956;2023-04-24T00:01:09;9.95;63.77
65598;SHT31;52267;51.984;20.956;2023-04-24T00:03:36;9.98;63.70
65598;SHT31;52267;51.984;20.956;2023-04-24T00:06:05;9.98;63.87
65598;SHT31;52267;51.984;20.956;2023-04-24T00:08:35;9.92;64.14
65598;SHT31;52267;51.984;20.956;2023-04-24T00:11:02;9.87;64.25
65598;SHT31;52267;51.984;20.956;2023-04-24T00:13:30;9.87;64.34
65598;SHT31;52267;51.984;20.956;2023-04-24T00:15:57;9.82;64.50
65598;SHT31;52267;51.984;20.956;2023-04-24T00:18:24;9.77;64.69
65598;SHT31;52267;51.984;20.956;2023-04-24T00:20:51;9.75;64.41
65598;SHT31;52267;51.984;20.956;2023-04-24T00:23:18;9.70;64.94
65598;SHT31;52267;51.984;20.956;2023-04-24T00:25:45;9.65;65.27
65598;SHT31;52267;51.984;20.956;2023-04-24T00:28:12;9.67;65.23
65598;SHT31;52267;51.984;20.956;2023-04-24T00:30:39;9.72;65.26
65598;SHT31;52267;51.984;20.956;2023-04-24T00:33:06;9.77;64.99
65598;SHT31;52267;51.984;20.956;2023-04-24T00:35:33;9.81;65.00
65598;SHT31;52267;51.984;20.956;2023-04-24T00:38:01;9.87;65.20
65598;SHT31;52267;51.984;20.956;2023-04-24T00:40:28;9.93;64.96
65598;SHT31;52267;51.984;20.956;2023-04-24T00:42:55;9.99;64.84
65598;SHT31;52267;51.984;20.956;2023-04-24T00:45:22;10.06;64.74
65598;SHT31;52267;51.984;20.956;2023-04-24T00:47:49;10.11;64.60
65598;SHT31;52267;51.984;20.956;2023-04-24T00:50:20;10.17;64.70
65598;SHT31;52267;51.984;20.956;2023-04-24T00:52:48;10.20;65.44
65598;SHT31;52267;51.984;20.956;2023-04-24T00:55:15;10.25;65.35
65598;SHT31;52267;51.984;20.956;2023-04-24T00:57:43;10.26;65.70
65598;SHT31;52267;51.984;20.956;2023-04-24T01:00:12;10.23;65.48
65598;SHT31;52267;51.984;20.956;2023-04-24T01:02:40;10.22;65.67
65598;SHT31;52267;51.984;20.956;2023-04-24T01:05:13;10.23;65.14
65598;SHT31;52267;51.984;20.956;2023-04-24T01:07:43;10.28;65.40
65598;SHT31;52267;51.984;20.956;2023-04-24T01:10:14;10.31;65.49
65598;SHT31;52267;51.984;20.956;2023-04-24T01:12:46;10.36;65.40
65598;SHT31;52267;51.984;20.956;2023-04-24T01:15:14;10.37;65.46
65598;SHT31;52267;51.984;20.956;2023-04-24T01:17:43;10.37;65.52
65598;SHT31;52267;51.984;20.956;2023-04-24T01:20:12;10.38;65.49
65598;SHT31;52267;51.984;20.956;2023-04-24T01:22:41;10.43;65.52
65598;SHT31;52267;51.984;20.956;2023-04-24T01:25:08;10.47;65.80
65598;SHT31;52267;51.984;20.956;2023-04-24T01:27:35;10.50;65.84
65598;SHT31;52267;51.984;20.956;2023-04-24T01:30:03;10.53;66.09
65598;SHT31;52267;51.984;20.956;2023-04-24T01:32:30;10.53;66.25
65598;SHT31;52267;51.984;20.956;2023-04-24T01:34:57;10.50;66.84
65598;SHT31;52267;51.984;20.956;2023-04-24T01:37:24;10.47;67.24
65598;SHT31;52267;51.984;20.956;2023-04-24T01:39:53;10.47;67.17
65598;SHT31;52267;51.984;20.956;2023-04-24T01:42:20;10.47;67.30
65598;SHT31;52267;51.984;20.956;2023-04-24T01:44:48;10.45;67.28
65598;SHT31;52267;51.984;20.956;2023-04-24T01:47:15;10.41;67.45
65598;SHT31;52267;51.984;20.956;2023-04-24T01:49:42;10.38;67.52
65598;SHT31;52267;51.984;20.956;2023-04-24T01:52:09;10.35;67.46
65598;SHT31;52267;51.984;20.956;2023-04-24T01:54:36;10.34;67.36
65598;SHT31;52267;51.984;20.956;2023-04-24T01:57:03;10.32;67.13
65598;SHT31;52267;51.984;20.956;2023-04-24T01:59:31;10.25;67.31
65598;SHT31;52267;51.984;20.956;2023-04-24T02:02:00;10.16;67.51
65598;SHT31;52267;51.984;20.956;2023-04-24T02:04:27;10.12;67.50
65598;SHT31;52267;51.984;20.956;2023-04-24T02:06:54;10.08;67.70
65598;SHT31;52267;51.984;20.956;2023-04-24T02:09:21;10.04;68.11
65598;SHT31;52267;51.984;20.956;2023-04-24T02:11:48;10.02;67.99
65598;SHT31;52267;51.984;20.956;2023-04-24T02:14:15;9.99;67.98
65598;SHT31;52267;51.984;20.956;2023-04-24T02:16:42;9.97;67.72
65598;SHT31;52267;51.984;20.956;2023-04-24T02:19:10;9.94;67.88
65598;SHT31;52267;51.984;20.956;2023-04-24T02:21:37;9.87;68.44
65598;SHT31;52267;51.984;20.956;2023-04-24T02:24:04;9.77;68.53
65598;SHT31;52267;51.984;20.956;2023-04-24T02:26:31;9.72;68.51
65598;SHT31;52267;51.984;20.956;2023-04-24T02:28:58;9.67;68.54
65598;SHT31;52267;51.984;20.956;2023-04-24T02:31:25;9.60;68.58
65598;SHT31;52267;51.984;20.956;2023-04-24T02:33:52;9.53;68.67
65598;SHT31;52267;51.984;20.956;2023-04-24T02:36:19;9.47;68.66
65598;SHT31;52267;51.984;20.956;2023-04-24T02:38:46;9.40;68.81
65598;SHT31;52267;51.984;20.956;2023-04-24T02:41:13;9.32;68.77
65598;SHT31;52267;51.984;20.956;2023-04-24T02:43:40;9.32;68.63
65598;SHT31;52267;51.984;20.956;2023-04-24T02:46:07;9.29;68.99
65598;SHT31;52267;51.984;20.956;2023-04-24T02:48:34;9.21;69.25
65598;SHT31;52267;51.984;20.956;2023-04-24T02:51:00;9.13;69.33
65598;SHT31;52267;51.984;20.956;2023-04-24T02:53:28;9.10;69.49
65598;SHT31;52267;51.984;20.956;2023-04-24T02:55:56;9.05;69.42
65598;SHT31;52267;51.984;20.956;2023-04-24T02:58:24;9.04;69.68
65598;SHT31;52267;51.984;20.956;2023-04-24T03:00:54;8.98;69.67
65598;SHT31;52267;51.984;20.956;2023-04-24T03:03:22;8.92;69.77
65598;SHT31;52267;51.984;20.956;2023-04-24T03:05:50;8.85;69.96
65598;SHT31;52267;51.984;20.956;2023-04-24T03:08:17;8.83;69.92
65598;SHT31;52267;51.984;20.956;2023-04-24T03:10:44;8.81;69.94
65598;SHT31;52267;51.984;20.956;2023-04-24T03:13:11;8.82;69.82
65598;SHT31;52267;51.984;20.956;2023-04-24T03:15:38;8.81;69.93
65598;SHT31;52267;51.984;20.956;2023-04-24T03:18:05;8.80;70.18
65598;SHT31;52267;51.984;20.956;2023-04-24T03:20:32;8.82;70.14
65598;SHT31;52267;51.984;20.956;2023-04-24T03:22:59;8.85;69.93
65598;SHT31;52267;51.984;20.956;2023-04-24T03:25:26;8.87;69.93
65598;SHT31;52267;51.984;20.956;2023-04-24T03:27:53;8.87;69.88
65598;SHT31;52267;51.984;20.956;2023-04-24T03:30:21;8.89;69.75
65598;SHT31;52267;51.984;20.956;2023-04-24T03:32:48;8.90;69.93
65598;SHT31;52267;51.984;20.956;2023-04-24T03:35:15;8.91;70.02
65598;SHT31;52267;51.984;20.956;2023-04-24T03:37:42;8.93;70.01
65598;SHT31;52267;51.984;20.956;2023-04-24T03:40:09;8.94;69.93
65598;SHT31;52267;51.984;20.956;2023-04-24T03:42:36;8.96;69.81
65598;SHT31;52267;51.984;20.956;2023-04-24T03:45:03;8.98;69.82
65598;SHT31;52267;51.984;20.956;2023-04-24T03:47:31;8.98;69.63
65598;SHT31;52267;51.984;20.956;2023-04-24T03:49:58;9.01;70.72
65598;SHT31;52267;51.984;20.956;2023-04-24T03:52:25;9.00;70.34
65598;SHT31;52267;51.984;20.956;2023-04-24T03:54:52;9.04;71.06
65598;SHT31;52267;51.984;20.956;2023-04-24T03:57:19;9.11;70.49
65598;SHT31;52267;51.984;20.956;2023-04-24T03:59:46;9.13;70.04
65598;SHT31;52267;51.984;20.956;2023-04-24T04:02:13;9.15;70.56
65598;SHT31;52267;51.984;20.956;2023-04-24T04:04:40;9.20;69.99
65598;SHT31;52267;51.984;20.956;2023-04-24T04:07:07;9.24;71.46
65598;SHT31;52267;51.984;20.956;2023-04-24T04:09:34;9.30;71.13
65598;SHT31;52267;51.984;20.956;2023-04-24T04:12:01;9.34;70.56
65598;SHT31;52267;51.984;20.956;2023-04-24T04:14:29;9.39;70.84
65598;SHT31;52267;51.984;20.956;2023-04-24T04:16:56;9.44;70.56
65598;SHT31;52267;51.984;20.956;2023-04-24T04:19:23;9.50;70.38
65598;SHT31;52267;51.984;20.956;2023-04-24T04:21:50;9.56;70.29
65598;SHT31;52267;51.984;20.956;2023-04-24T04:24:19;9.62;70.05
65598;SHT31;52267;51.984;20.956;2023-04-24T04:26:50;9.70;69.72
65598;SHT31;52267;51.984;20.956;2023-04-24T04:29:17;9.75;69.59
65598;SHT31;52267;51.984;20.956;2023-04-24T04:31:44;9.81;69.24
65598;SHT31;52267;51.984;20.956;2023-04-24T04:34:12;9.88;69.46
65598;SHT31;52267;51.984;20.956;2023-04-24T04:36:40;9.93;69.06
65598;SHT31;52267;51.984;20.956;2023-04-24T04:39:08;10.00;68.67
65598;SHT31;52267;51.984;20.956;2023-04-24T04:41:35;10.07;68.93
65598;SHT31;52267;51.984;20.956;2023-04-24T04:44:02;10.13;68.94
65598;SHT31;52267;51.984;20.956;2023-04-24T04:46:31;10.21;68.24
65598;SHT31;52267;51.984;20.956;2023-04-24T04:49:01;10.30;68.07
65598;SHT31;52267;51.984;20.956;2023-04-24T04:51:28;10.38;68.35
65598;SHT31;52267;51.984;20.956;2023-04-24T04:53:56;10.46;68.51
65598;SHT31;52267;51.984;20.956;2023-04-24T04:56:23;10.58;68.17
65598;SHT31;52267;51.984;20.956;2023-04-24T04:58:50;10.68;68.08
65598;SHT31;52267;51.984;20.956;2023-04-24T05:01:17;10.80;67.58
65598;SHT31;52267;51.984;20.956;2023-04-24T05:03:45;10.91;67.32
65598;SHT31;52267;51.984;20.956;2023-04-24T05:06:12;11.04;67.12
65598;SHT31;52267;51.984;20.956;2023-04-24T05:08:39;11.15;66.84
65598;SHT31;52267;51.984;20.956;2023-04-24T05:11:06;11.26;66.93
65598;SHT31;52267;51.984;20.956;2023-04-24T05:13:33;11.38;66.80
65598;SHT31;52267;51.984;20.956;2023-04-24T05:16:00;11.50;66.53
65598;SHT31;52267;51.984;20.956;2023-04-24T05:18:27;11.59;66.17
65598;SHT31;52267;51.984;20.956;2023-04-24T05:20:54;11.68;66.19
65598;SHT31;52267;51.984;20.956;2023-04-24T05:23:22;11.79;66.07
65598;SHT31;52267;51.984;20.956;2023-04-24T05:25:49;11.92;65.91
65598;SHT31;52267;51.984;20.956;2023-04-24T05:28:16;12.04;65.58
65598;SHT31;52267;51.984;20.956;2023-04-24T05:30:43;12.16;65.24
65598;SHT31;52267;51.984;20.956;2023-04-24T05:33:10;12.28;65.47
65598;SHT31;52267;51.984;20.956;2023-04-24T05:35:37;12.43;65.36
65598;SHT31;52267;51.984;20.956;2023-04-24T05:38:04;12.58;65.11
65598;SHT31;52267;51.984;20.956;2023-04-24T05:40:31;12.71;64.59
65598;SHT31;52267;51.984;20.956;2023-04-24T05:42:58;12.80;64.27
65598;SHT31;52267;51.984;20.956;2023-04-24T05:45:25;12.90;63.99
65598;SHT31;52267;51.984;20.956;2023-04-24T05:47:53;13.00;63.69
65598;SHT31;52267;51.984;20.956;2023-04-24T05:50:20;13.10;63.30
65598;SHT31;52267;51.984;20.956;2023-04-24T05:52:47;13.21;62.92
65598;SHT31;52267;51.984;20.956;2023-04-24T05:55:14;13.34;63.18
65598;SHT31;52267;51.984;20.956;2023-04-24T05:57:44;13.47;63.06
65598;SHT31;52267;51.984;20.956;2023-04-24T06:00:12;13.59;63.01
65598;SHT31;52267;51.984;20.956;2023-04-24T06:02:39;13.73;62.88
65598;SHT31;52267;51.984;20.956;2023-04-24T06:05:07;13.85;62.54
65598;SHT31;52267;51.984;20.956;2023-04-24T06:07:34;13.99;62.51
65598;SHT31;52267;51.984;20.956;2023-04-24T06:10:02;14.16;62.45
65598;SHT31;52267;51.984;20.956;2023-04-24T06:12:29;14.32;61.96
65598;SHT31;52267;51.984;20.956;2023-04-24T06:14:56;14.40;60.66
65598;SHT31;52267;51.984;20.956;2023-04-24T06:17:23;14.45;60.30
65598;SHT31;52267;51.984;20.956;2023-04-24T06:19:50;14.57;60.79
65598;SHT31;52267;51.984;20.956;2023-04-24T06:22:17;14.70;60.55
65598;SHT31;52267;51.984;20.956;2023-04-24T06:24:44;14.78;59.04
65598;SHT31;52267;51.984;20.956;2023-04-24T06:27:11;14.88;59.91
65598;SHT31;52267;51.984;20.956;2023-04-24T06:29:38;14.93;59.52
65598;SHT31;52267;51.984;20.956;2023-04-24T06:32:06;14.97;59.40
65598;SHT31;52267;51.984;20.956;2023-04-24T06:34:33;15.14;59.24
65598;SHT31;52267;51.984;20.956;2023-04-24T06:37:03;15.33;58.92
65598;SHT31;52267;51.984;20.956;2023-04-24T06:39:30;15.58;59.15
65598;SHT31;52267;51.984;20.956;2023-04-24T06:41:58;15.77;58.33
65598;SHT31;52267;51.984;20.956;2023-04-24T06:44:25;15.95;58.21
65598;SHT31;52267;51.984;20.956;2023-04-24T06:46:52;16.18;57.85
65598;SHT31;52267;51.984;20.956;2023-04-24T06:49:19;16.33;57.90
65598;SHT31;52267;51.984;20.956;2023-04-24T06:51:46;16.41;57.74
65598;SHT31;52267;51.984;20.956;2023-04-24T06:54:13;16.38;56.21
65598;SHT31;52267;51.984;20.956;2023-04-24T06:56:40;16.43;56.72
65598;SHT31;52267;51.984;20.956;2023-04-24T06:59:07;16.61;56.91
65598;SHT31;52267;51.984;20.956;2023-04-24T07:01:34;16.85;56.67
65598;SHT31;52267;51.984;20.956;2023-04-24T07:04:01;17.15;56.27
65598;SHT31;52267;51.984;20.956;2023-04-24T07:06:28;17.34;55.46
65598;SHT31;52267;51.984;20.956;2023-04-24T07:08:56;17.53;55.10
65598;SHT31;52267;51.984;20.956;2023-04-24T07:11:23;17.62;53.69
65598;SHT31;52267;51.984;20.956;2023-04-24T07:13:50;17.61;52.79
65598;SHT31;52267;51.984;20.956;2023-04-24T07:16:17;17.57;53.55
65598;SHT31;52267;51.984;20.956;2023-04-24T07:18:44;17.43;52.87
65598;SHT31;52267;51.984;20.956;2023-04-24T07:21:11;17.38;53.49
65598;SHT31;52267;51.984;20.956;2023-04-24T07:23:38;17.42;54.42
65598;SHT31;52267;51.984;20.956;2023-04-24T07:26:07;17.50;55.02
65598;SHT31;52267;51.984;20.956;2023-04-24T07:28:34;17.52;54.83
65598;SHT31;52267;51.984;20.956;2023-04-24T07:31:01;17.49;55.02
65598;SHT31;52267;51.984;20.956;2023-04-24T07:33:28;17.52;55.34
65598;SHT31;52267;51.984;20.956;2023-04-24T07:35:59;17.59;54.87
65598;SHT31;52267;51.984;20.956;2023-04-24T07:38:26;17.85;54.37
65598;SHT31;52267;51.984;20.956;2023-04-24T07:40:56;18.10;54.28
65598;SHT31;52267;51.984;20.956;2023-04-24T07:43:23;18.34;53.78
65598;SHT31;52267;51.984;20.956;2023-04-24T07:45:50;18.36;53.71
65598;SHT31;52267;51.984;20.956;2023-04-24T07:48:17;18.56;53.83
65598;SHT31;52267;51.984;20.956;2023-04-24T07:50:44;18.80;52.68
65598;SHT31;52267;51.984;20.956;2023-04-24T07:53:12;19.16;52.58
65598;SHT31;52267;51.984;20.956;2023-04-24T07:55:39;19.47;51.66
65598;SHT31;52267;51.984;20.956;2023-04-24T07:58:06;19.76;51.14
65598;SHT31;52267;51.984;20.956;2023-04-24T08:00:33;20.13;51.10
65598;SHT31;52267;51.984;20.956;2023-04-24T08:03:00;20.41;50.24
65598;SHT31;52267;51.984;20.956;2023-04-24T08:05:27;20.63;49.40
65598;SHT31;52267;51.984;20.956;2023-04-24T08:07:55;20.51;49.63
65598;SHT31;52267;51.984;20.956;2023-04-24T08:10:22;20.25;48.21
65598;SHT31;52267;51.984;20.956;2023-04-24T08:12:50;20.08;49.70
65598;SHT31;52267;51.984;20.956;2023-04-24T08:15:17;20.19;49.82
65598;SHT31;52267;51.984;20.956;2023-04-24T08:17:44;20.04;49.96
65598;SHT31;52267;51.984;20.956;2023-04-24T08:20:11;20.29;50.75
65598;SHT31;52267;51.984;20.956;2023-04-24T08:22:42;20.54;49.89
65598;SHT31;52267;51.984;20.956;2023-04-24T08:25:10;20.39;50.32
65598;SHT31;52267;51.984;20.956;2023-04-24T08:27:37;20.47;50.10
65598;SHT31;52267;51.984;20.956;2023-04-24T08:30:05;20.77;49.78
65598;SHT31;52267;51.984;20.956;2023-04-24T08:32:33;20.88;47.72
65598;SHT31;52267;51.984;20.956;2023-04-24T08:35:00;20.30;46.77
65598;SHT31;52267;51.984;20.956;2023-04-24T08:37:28;19.91;48.04
65598;SHT31;52267;51.984;20.956;2023-04-24T08:39:55;19.61;48.21
65598;SHT31;52267;51.984;20.956;2023-04-24T08:42:22;19.53;48.31
65598;SHT31;52267;51.984;20.956;2023-04-24T08:44:49;19.32;47.52
65598;SHT31;52267;51.984;20.956;2023-04-24T08:47:16;19.15;48.04
65598;SHT31;52267;51.984;20.956;2023-04-24T08:49:46;19.30;48.85
65598;SHT31;52267;51.984;20.956;2023-04-24T08:52:14;19.32;48.74
65598;SHT31;52267;51.984;20.956;2023-04-24T08:54:42;19.34;48.95
65598;SHT31;52267;51.984;20.956;2023-04-24T08:57:11;19.49;48.92
65598;SHT31;52267;51.984;20.956;2023-04-24T08:59:41;19.65;47.85
65598;SHT31;52267;51.984;20.956;2023-04-24T09:02:10;19.88;48.37
65598;SHT31;52267;51.984;20.956;2023-04-24T09:04:38;20.43;47.75
65598;SHT31;52267;51.984;20.956;2023-04-24T09:07:05;21.11;47.59
65598;SHT31;52267;51.984;20.956;2023-04-24T09:09:40;21.76;47.03
65598;SHT31;52267;51.984;20.956;2023-04-24T09:12:08;21.67;44.54
65598;SHT31;52267;51.984;20.956;2023-04-24T09:14:36;21.32;43.90
65598;SHT31;52267;51.984;20.956;2023-04-24T09:17:08;21.28;44.11
65598;SHT31;52267;51.984;20.956;2023-04-24T09:19:35;21.58;44.62
65598;SHT31;52267;51.984;20.956;2023-04-24T09:22:05;22.00;44.15
65598;SHT31;52267;51.984;20.956;2023-04-24T09:24:34;22.26;44.27
65598;SHT31;52267;51.984;20.956;2023-04-24T09:27:01;22.61;43.97
65598;SHT31;52267;51.984;20.956;2023-04-24T09:29:28;22.58;44.43
65598;SHT31;52267;51.984;20.956;2023-04-24T09:31:56;22.74;44.34
65598;SHT31;52267;51.984;20.956;2023-04-24T09:34:23;22.47;43.16
65598;SHT31;52267;51.984;20.956;2023-04-24T09:36:53;22.58;43.71
65598;SHT31;52267;51.984;20.956;2023-04-24T09:39:21;23.02;43.86
65598;SHT31;52267;51.984;20.956;2023-04-24T09:41:52;23.52;43.34
65598;SHT31;52267;51.984;20.956;2023-04-24T09:44:26;23.70;42.07
65598;SHT31;52267;51.984;20.956;2023-04-24T09:46:55;23.89;42.12
65598;SHT31;52267;51.984;20.956;2023-04-24T09:49:28;23.91;41.41
65598;SHT31;52267;51.984;20.956;2023-04-24T09:52:07;24.15;42.14
65598;SHT31;52267;51.984;20.956;2023-04-24T09:54:38;24.42;42.24
65598;SHT31;52267;51.984;20.956;2023-04-24T09:57:09;24.73;41.47
65598;SHT31;52267;51.984;20.956;2023-04-24T09:59:38;25.21;41.10
65598;SHT31;52267;51.984;20.956;2023-04-24T10:02:17;25.54;41.26
65598;SHT31;52267;51.984;20.956;2023-04-24T10:04:55;25.43;39.18
65598;SHT31;52267;51.984;20.956;2023-04-24T10:07:25;25.42;40.03
65598;SHT31;52267;51.984;20.956;2023-04-24T10:09:53;25.43;39.26
65598;SHT31;52267;51.984;20.956;2023-04-24T10:12:21;25.34;39.02
65598;SHT31;52267;51.984;20.956;2023-04-24T10:14:48;25.21;38.16
65598;SHT31;52267;51.984;20.956;2023-04-24T10:17:16;25.35;37.87
65598;SHT31;52267;51.984;20.956;2023-04-24T10:19:44;25.37;37.27
65598;SHT31;52267;51.984;20.956;2023-04-24T10:22:12;25.40;36.94
65598;SHT31;52267;51.984;20.956;2023-04-24T10:24:43;25.43;37.57
65598;SHT31;52267;51.984;20.956;2023-04-24T10:27:10;25.14;36.64
65598;SHT31;52267;51.984;20.956;2023-04-24T10:29:41;25.16;37.21
65598;SHT31;52267;51.984;20.956;2023-04-24T10:32:11;25.44;37.06
65598;SHT31;52267;51.984;20.956;2023-04-24T10:34:38;25.76;37.70
65598;SHT31;52267;51.984;20.956;2023-04-24T10:37:05;25.83;37.31
65598;SHT31;52267;51.984;20.956;2023-04-24T10:39:32;25.74;36.06
65598;SHT31;52267;51.984;20.956;2023-04-24T10:41:59;25.87;36.21
65598;SHT31;52267;51.984;20.956;2023-04-24T10:44:27;26.07;36.30
65598;SHT31;52267;51.984;20.956;2023-04-24T10:47:03;25.83;36.49
65598;SHT31;52267;51.984;20.956;2023-04-24T10:49:30;25.84;37.79
65598;SHT31;52267;51.984;20.956;2023-04-24T10:52:04;25.88;36.61
65598;SHT31;52267;51.984;20.956;2023-04-24T11:02:57;26.09;36.24
65598;SHT31;52267;51.984;20.956;2023-04-24T11:08:27;26.28;36.53
65598;SHT31;52267;51.984;20.956;2023-04-24T11:16:30;25.46;35.99
65598;SHT31;52267;51.984;20.956;2023-04-24T11:19:22;25.64;36.27
65598;SHT31;52267;51.984;20.956;2023-04-24T11:21:55;25.60;35.97
65598;SHT31;52267;51.984;20.956;2023-04-24T11:26:44;25.46;35.79
65598;SHT31;52267;51.984;20.956;2023-04-24T11:29:11;25.61;36.51
65598;SHT31;52267;51.984;20.956;2023-04-24T11:31:39;25.90;35.80
65598;SHT31;52267;51.984;20.956;2023-04-24T11:34:15;26.00;34.96
65598;SHT31;52267;51.984;20.956;2023-04-24T11:36:46;25.86;34.19
65598;SHT31;52267;51.984;20.956;2023-04-24T11:39:16;25.77;35.19
65598;SHT31;52267;51.984;20.956;2023-04-24T11:41:43;25.57;34.99
65598;SHT31;52267;51.984;20.956;2023-04-24T11:44:10;25.48;35.58
65598;SHT31;52267;51.984;20.956;2023-04-24T11:46:38;25.48;36.07
65598;SHT31;52267;51.984;20.956;2023-04-24T11:49:06;25.60;36.33
65598;SHT31;52267;51.984;20.956;2023-04-24T11:51:33;25.07;36.35
65598;SHT31;52267;51.984;20.956;2023-04-24T11:54:01;24.78;36.69
65598;SHT31;52267;51.984;20.956;2023-04-24T11:56:28;24.73;37.38
65598;SHT31;52267;51.984;20.956;2023-04-24T11:58:55;25.09;36.48
65598;SHT31;52267;51.984;20.956;2023-04-24T12:01:22;25.14;36.42
65598;SHT31;52267;51.984;20.956;2023-04-24T12:03:50;24.74;35.63
65598;SHT31;52267;51.984;20.956;2023-04-24T12:06:17;24.27;36.41
65598;SHT31;52267;51.984;20.956;2023-04-24T12:08:46;23.87;36.65
65598;SHT31;52267;51.984;20.956;2023-04-24T12:11:14;23.50;37.03
65598;SHT31;52267;51.984;20.956;2023-04-24T12:13:44;23.23;37.71
65598;SHT31;52267;51.984;20.956;2023-04-24T12:16:11;22.92;38.29
65598;SHT31;52267;51.984;20.956;2023-04-24T12:18:42;22.69;38.96
65598;SHT31;52267;51.984;20.956;2023-04-24T12:21:15;22.77;39.28
65598;SHT31;52267;51.984;20.956;2023-04-24T12:23:47;22.57;39.46
65598;SHT31;52267;51.984;20.956;2023-04-24T12:26:18;21.90;40.11
65598;SHT31;52267;51.984;20.956;2023-04-24T12:28:48;21.27;41.46
65598;SHT31;52267;51.984;20.956;2023-04-24T12:31:16;20.98;42.36
65598;SHT31;52267;51.984;20.956;2023-04-24T12:33:43;20.73;43.17
65598;SHT31;52267;51.984;20.956;2023-04-24T12:36:11;20.43;43.68
65598;SHT31;52267;51.984;20.956;2023-04-24T12:38:39;20.15;44.37
65598;SHT31;52267;51.984;20.956;2023-04-24T12:41:11;19.91;45.26
65598;SHT31;52267;51.984;20.956;2023-04-24T12:43:50;19.64;45.93
65598;SHT31;52267;51.984;20.956;2023-04-24T12:46:19;19.50;46.47
65598;SHT31;52267;51.984;20.956;2023-04-24T12:48:46;19.40;46.74
65598;SHT31;52267;51.984;20.956;2023-04-24T12:51:13;19.40;46.85
65598;SHT31;52267;51.984;20.956;2023-04-24T12:53:40;19.26;48.08
65598;SHT31;52267;51.984;20.956;2023-04-24T12:56:07;19.19;48.74
65598;SHT31;52267;51.984;20.956;2023-04-24T12:58:34;19.03;49.10
65598;SHT31;52267;51.984;20.956;2023-04-24T13:01:04;18.84;49.52
65598;SHT31;52267;51.984;20.956;2023-04-24T13:03:32;18.67;50.68
65598;SHT31;52267;51.984;20.956;2023-04-24T13:05:59;18.57;49.90
65598;SHT31;52267;51.984;20.956;2023-04-24T13:08:26;18.48;49.26
65598;SHT31;52267;51.984;20.956;2023-04-24T13:10:53;18.37;50.10
65598;SHT31;52267;51.984;20.956;2023-04-24T13:13:20;18.28;49.33
65598;SHT31;52267;51.984;20.956;2023-04-24T13:15:47;18.27;48.97
65598;SHT31;52267;51.984;20.956;2023-04-24T13:18:14;18.35;48.64
65598;SHT31;52267;51.984;20.956;2023-04-24T13:20:42;18.46;48.39
65598;SHT31;52267;51.984;20.956;2023-04-24T13:23:10;18.60;48.16
65598;SHT31;52267;51.984;20.956;2023-04-24T13:25:37;18.75;48.00
65598;SHT31;52267;51.984;20.956;2023-04-24T13:28:05;18.89;47.92
65598;SHT31;52267;51.984;20.956;2023-04-24T13:30:32;18.98;47.59
65598;SHT31;52267;51.984;20.956;2023-04-24T13:32:59;19.27;47.53
65598;SHT31;52267;51.984;20.956;2023-04-24T13:35:26;19.66;47.44
65598;SHT31;52267;51.984;20.956;2023-04-24T13:37:53;20.24;46.86
65598;SHT31;52267;51.984;20.956;2023-04-24T13:40:20;20.81;45.97
65598;SHT31;52267;51.984;20.956;2023-04-24T13:42:47;21.05;45.45
65598;SHT31;52267;51.984;20.956;2023-04-24T13:45:14;21.11;44.53
65598;SHT31;52267;51.984;20.956;2023-04-24T13:47:41;21.22;44.38
65598;SHT31;52267;51.984;20.956;2023-04-24T13:50:08;21.29;44.14
65598;SHT31;52267;51.984;20.956;2023-04-24T13:52:36;21.32;43.84
65598;SHT31;52267;51.984;20.956;2023-04-24T13:55:06;21.37;43.38
65598;SHT31;52267;51.984;20.956;2023-04-24T13:57:33;21.54;43.36
65598;SHT31;52267;51.984;20.956;2023-04-24T14:00:01;21.62;43.25
65598;SHT31;52267;51.984;20.956;2023-04-24T14:02:30;21.59;43.01
65598;SHT31;52267;51.984;20.956;2023-04-24T14:04:57;21.62;42.86
65598;SHT31;52267;51.984;20.956;2023-04-24T14:07:24;21.68;42.52
65598;SHT31;52267;51.984;20.956;2023-04-24T14:09:51;21.79;42.39
65598;SHT31;52267;51.984;20.956;2023-04-24T14:12:18;22.03;42.02
65598;SHT31;52267;51.984;20.956;2023-04-24T14:14:46;22.13;41.31
65598;SHT31;52267;51.984;20.956;2023-04-24T14:17:14;22.35;40.38
65598;SHT31;52267;51.984;20.956;2023-04-24T14:19:41;22.57;39.87
65598;SHT31;52267;51.984;20.956;2023-04-24T14:22:09;22.80;39.13
65598;SHT31;52267;51.984;20.956;2023-04-24T14:24:36;22.92;37.26
65598;SHT31;52267;51.984;20.956;2023-04-24T14:27:04;22.97;37.35
65598;SHT31;52267;51.984;20.956;2023-04-24T14:29:31;22.83;37.51
65598;SHT31;52267;51.984;20.956;2023-04-24T14:31:58;22.87;36.74
65598;SHT31;52267;51.984;20.956;2023-04-24T14:34:25;22.91;37.52
65598;SHT31;52267;51.984;20.956;2023-04-24T14:36:52;22.90;37.45
65598;SHT31;52267;51.984;20.956;2023-04-24T14:39:20;22.83;36.64
65598;SHT31;52267;51.984;20.956;2023-04-24T14:41:47;22.71;36.72
65598;SHT31;52267;51.984;20.956;2023-04-24T14:44:14;22.52;36.70
65598;SHT31;52267;51.984;20.956;2023-04-24T14:46:41;22.42;37.25
65598;SHT31;52267;51.984;20.956;2023-04-24T14:49:09;22.38;38.02
65598;SHT31;52267;51.984;20.956;2023-04-24T14:51:36;22.34;38.68
65598;SHT31;52267;51.984;20.956;2023-04-24T14:54:03;22.31;38.75
65598;SHT31;52267;51.984;20.956;2023-04-24T14:56:30;22.26;38.87
65598;SHT31;52267;51.984;20.956;2023-04-24T14:58:57;22.17;39.49
65598;SHT31;52267;51.984;20.956;2023-04-24T15:01:24;22.04;40.03
65598;SHT31;52267;51.984;20.956;2023-04-24T15:03:54;21.88;40.70
65598;SHT31;52267;51.984;20.956;2023-04-24T15:06:21;21.78;40.63
65598;SHT31;52267;51.984;20.956;2023-04-24T15:08:48;21.74;40.94
65598;SHT31;52267;51.984;20.956;2023-04-24T15:11:15;21.69;41.40
65598;SHT31;52267;51.984;20.956;2023-04-24T15:13:42;21.76;41.04
65598;SHT31;52267;51.984;20.956;2023-04-24T15:16:11;21.97;40.86
65598;SHT31;52267;51.984;20.956;2023-04-24T15:18:38;22.18;40.45
65598;SHT31;52267;51.984;20.956;2023-04-24T15:21:05;22.39;39.85
65598;SHT31;52267;51.984;20.956;2023-04-24T15:23:32;22.54;39.09
65598;SHT31;52267;51.984;20.956;2023-04-24T15:25:59;22.69;38.69
65598;SHT31;52267;51.984;20.956;2023-04-24T15:28:27;22.83;38.30
65598;SHT31;52267;51.984;20.956;2023-04-24T15:30:54;22.98;37.76
65598;SHT31;52267;51.984;20.956;2023-04-24T15:33:21;23.09;37.38
65598;SHT31;52267;51.984;20.956;2023-04-24T15:35:48;23.20;37.52
65598;SHT31;52267;51.984;20.956;2023-04-24T15:38:15;23.24;37.80
65598;SHT31;52267;51.984;20.956;2023-04-24T15:40:42;23.28;37.87
65598;SHT31;52267;51.984;20.956;2023-04-24T15:43:10;23.30;37.16